sensor_id;sensor_type;location;lat;lon;timestamp;P1;durP1;ratioP1;P2;durP2;ratioP2
80293;SDS011;69594;43.516;1.498;2023-07-08T00:00:13;3.58;;;2.10;;
80293;SDS011;69594;43.516;1.498;2023-07-08T00:02:44;3.23;;;1.60;;
80293;SDS011;69594;43.516;1.498;2023-07-08T00:05:10;3.83;;;1.90;;
80293;SDS011;69594;43.516;1.498;2023-07-08T00:07:38;8.27;;;2.20;;
80293;SDS011;69594;43.516;1.498;2023-07-08T00:10:12;3.28;;;1.83;;
80293;SDS011;69594;43.516;1.498;2023-07-08T00:12:38;5.20;;;2.35;;
80293;SDS011;69594;43.516;1.498;2023-07-08T00:15:05;5.93;;;2.10;;
80293;SDS011;69594;43.516;1.498;2023-07-08T00:17:31;4.00;;;2.03;;
80293;SDS011;69594;43.516;1.498;2023-07-08T00:19:57;4.60;;;2.40;;
80293;SDS011;69594;43.516;1.498;2023-07-08T00:22:23;6.88;;;2.40;;
80293;SDS011;69594;43.516;1.498;2023-07-08T00:24:50;5.35;;;2.35;;
80293;SDS011;69594;43.516;1.498;2023-07-08T00:27:16;5.20;;;2.77;;
80293;SDS011;69594;43.516;1.498;2023-07-08T00:29:42;6.55;;;3.00;;
80293;SDS011;69594;43.516;1.498;2023-07-08T00:32:12;5.13;;;3.13;;
80293;SDS011;69594;43.516;1.498;2023-07-08T00:34:41;7.50;;;3.17;;
80293;SDS011;69594;43.516;1.498;2023-07-08T00:37:09;8.82;;;3.05;;
80293;SDS011;69594;43.516;1.498;2023-07-08T00:39:36;11.20;;;3.50;;
80293;SDS011;69594;43.516;1.498;2023-07-08T00:42:06;6.55;;;3.38;;
80293;SDS011;69594;43.516;1.498;2023-07-08T00:44:40;8.40;;;3.42;;
80293;SDS011;69594;43.516;1.498;2023-07-08T00:47:09;6.97;;;3.63;;
80293;SDS011;69594;43.516;1.498;2023-07-08T00:52:25;15.20;;;3.97;;
80293;SDS011;69594;43.516;1.498;2023-07-08T00:54:52;7.30;;;3.33;;
80293;SDS011;69594;43.516;1.498;2023-07-08T00:57:20;9.02;;;3.97;;
80293;SDS011;69594;43.516;1.498;2023-07-08T00:59:56;8.27;;;3.67;;
80293;SDS011;69594;43.516;1.498;2023-07-08T01:02:23;10.32;;;4.30;;
80293;SDS011;69594;43.516;1.498;2023-07-08T01:07:26;10.10;;;4.45;;
80293;SDS011;69594;43.516;1.498;2023-07-08T01:10:01;8.57;;;4.20;;
80293;SDS011;69594;43.516;1.498;2023-07-08T01:12:38;9.48;;;4.47;;
80293;SDS011;69594;43.516;1.498;2023-07-08T01:15:10;8.82;;;4.30;;
80293;SDS011;69594;43.516;1.498;2023-07-08T01:17:36;8.18;;;4.30;;
80293;SDS011;69594;43.516;1.498;2023-07-08T01:20:03;7.67;;;3.83;;
80293;SDS011;69594;43.516;1.498;2023-07-08T01:22:31;10.90;;;4.70;;
80293;SDS011;69594;43.516;1.498;2023-07-08T01:25:00;10.55;;;4.63;;
80293;SDS011;69594;43.516;1.498;2023-07-08T01:27:28;7.32;;;4.15;;
80293;SDS011;69594;43.516;1.498;2023-07-08T01:29:57;7.75;;;4.10;;
80293;SDS011;69594;43.516;1.498;2023-07-08T01:32:23;7.63;;;4.10;;
80293;SDS011;69594;43.516;1.498;2023-07-08T01:34:49;8.52;;;3.92;;
80293;SDS011;69594;43.516;1.498;2023-07-08T01:38:10;9.40;;;4.38;;
80293;SDS011;69594;43.516;1.498;2023-07-08T01:40:25;7.97;;;4.40;;
80293;SDS011;69594;43.516;1.498;2023-07-08T01:42:53;10.20;;;4.57;;
80293;SDS011;69594;43.516;1.498;2023-07-08T01:45:20;8.80;;;4.10;;
80293;SDS011;69594;43.516;1.498;2023-07-08T01:47:51;9.00;;;3.97;;
80293;SDS011;69594;43.516;1.498;2023-07-08T01:50:21;8.07;;;4.25;;
80293;SDS011;69594;43.516;1.498;2023-07-08T01:52:48;8.95;;;4.38;;
80293;SDS011;69594;43.516;1.498;2023-07-08T01:55:15;8.50;;;3.78;;
80293;SDS011;69594;43.516;1.498;2023-07-08T01:57:45;11.90;;;4.13;;
80293;SDS011;69594;43.516;1.498;2023-07-08T02:00:11;8.18;;;4.22;;
80293;SDS011;69594;43.516;1.498;2023-07-08T02:02:38;9.05;;;3.90;;
80293;SDS011;69594;43.516;1.498;2023-07-08T02:05:03;8.67;;;4.40;;
80293;SDS011;69594;43.516;1.498;2023-07-08T02:07:29;8.07;;;4.05;;
80293;SDS011;69594;43.516;1.498;2023-07-08T02:09:55;7.43;;;4.00;;
80293;SDS011;69594;43.516;1.498;2023-07-08T02:12:20;7.28;;;4.13;;
80293;SDS011;69594;43.516;1.498;2023-07-08T02:14:46;10.50;;;4.43;;
80293;SDS011;69594;43.516;1.498;2023-07-08T02:17:11;11.93;;;4.27;;
80293;SDS011;69594;43.516;1.498;2023-07-08T02:19:42;8.73;;;4.40;;
80293;SDS011;69594;43.516;1.498;2023-07-08T02:22:08;9.65;;;4.07;;
80293;SDS011;69594;43.516;1.498;2023-07-08T02:24:35;9.70;;;4.55;;
80293;SDS011;69594;43.516;1.498;2023-07-08T02:27:01;8.70;;;4.87;;
80293;SDS011;69594;43.516;1.498;2023-07-08T02:29:26;10.40;;;4.10;;
80293;SDS011;69594;43.516;1.498;2023-07-08T02:31:52;9.77;;;4.97;;
80293;SDS011;69594;43.516;1.498;2023-07-08T02:34:18;10.70;;;4.35;;
80293;SDS011;69594;43.516;1.498;2023-07-08T02:36:43;9.80;;;4.23;;
80293;SDS011;69594;43.516;1.498;2023-07-08T02:39:09;12.07;;;4.55;;
80293;SDS011;69594;43.516;1.498;2023-07-08T02:41:36;10.90;;;4.35;;
80293;SDS011;69594;43.516;1.498;2023-07-08T02:44:02;7.07;;;4.27;;
80293;SDS011;69594;43.516;1.498;2023-07-08T02:46:27;9.23;;;4.28;;
80293;SDS011;69594;43.516;1.498;2023-07-08T02:48:53;7.70;;;3.90;;
80293;SDS011;69594;43.516;1.498;2023-07-08T02:51:18;12.30;;;4.85;;
80293;SDS011;69594;43.516;1.498;2023-07-08T02:53:44;7.43;;;3.97;;
80293;SDS011;69594;43.516;1.498;2023-07-08T02:56:09;12.77;;;4.60;;
80293;SDS011;69594;43.516;1.498;2023-07-08T02:58:35;9.93;;;4.27;;
80293;SDS011;69594;43.516;1.498;2023-07-08T03:01:01;7.13;;;3.85;;
80293;SDS011;69594;43.516;1.498;2023-07-08T03:03:27;8.40;;;3.80;;
80293;SDS011;69594;43.516;1.498;2023-07-08T03:05:57;9.13;;;4.17;;
80293;SDS011;69594;43.516;1.498;2023-07-08T03:08:25;6.88;;;4.13;;
80293;SDS011;69594;43.516;1.498;2023-07-08T03:10:58;9.55;;;4.90;;
80293;SDS011;69594;43.516;1.498;2023-07-08T03:13:26;8.55;;;4.10;;
80293;SDS011;69594;43.516;1.498;2023-07-08T03:15:52;8.93;;;4.18;;
80293;SDS011;69594;43.516;1.498;2023-07-08T03:18:20;8.23;;;4.00;;
80293;SDS011;69594;43.516;1.498;2023-07-08T03:20:47;9.23;;;4.18;;
80293;SDS011;69594;43.516;1.498;2023-07-08T03:23:13;11.18;;;4.53;;
80293;SDS011;69594;43.516;1.498;2023-07-08T03:25:39;10.07;;;4.30;;
80293;SDS011;69594;43.516;1.498;2023-07-08T03:28:05;9.30;;;4.10;;
80293;SDS011;69594;43.516;1.498;2023-07-08T03:30:35;8.15;;;3.55;;
80293;SDS011;69594;43.516;1.498;2023-07-08T03:33:01;6.05;;;3.80;;
80293;SDS011;69594;43.516;1.498;2023-07-08T03:35:26;9.60;;;4.13;;
80293;SDS011;69594;43.516;1.498;2023-07-08T03:37:52;9.23;;;4.43;;
80293;SDS011;69594;43.516;1.498;2023-07-08T03:40:18;8.53;;;3.63;;
80293;SDS011;69594;43.516;1.498;2023-07-08T03:42:43;8.68;;;3.75;;
80293;SDS011;69594;43.516;1.498;2023-07-08T03:45:09;9.03;;;3.70;;
80293;SDS011;69594;43.516;1.498;2023-07-08T03:47:35;9.57;;;4.22;;
80293;SDS011;69594;43.516;1.498;2023-07-08T03:50:01;8.70;;;3.80;;
80293;SDS011;69594;43.516;1.498;2023-07-08T03:52:27;5.55;;;3.28;;
80293;SDS011;69594;43.516;1.498;2023-07-08T03:54:53;8.27;;;3.95;;
80293;SDS011;69594;43.516;1.498;2023-07-08T03:57:19;8.13;;;3.13;;
80293;SDS011;69594;43.516;1.498;2023-07-08T03:59:44;11.00;;;4.13;;
80293;SDS011;69594;43.516;1.498;2023-07-08T04:02:10;9.77;;;4.45;;
80293;SDS011;69594;43.516;1.498;2023-07-08T04:04:36;10.68;;;3.92;;
80293;SDS011;69594;43.516;1.498;2023-07-08T04:07:05;8.73;;;3.70;;
80293;SDS011;69594;43.516;1.498;2023-07-08T04:09:31;7.40;;;3.15;;
80293;SDS011;69594;43.516;1.498;2023-07-08T04:11:57;8.13;;;3.65;;
80293;SDS011;69594;43.516;1.498;2023-07-08T04:14:23;8.73;;;3.77;;
80293;SDS011;69594;43.516;1.498;2023-07-08T04:16:56;7.60;;;3.45;;
80293;SDS011;69594;43.516;1.498;2023-07-08T04:19:24;9.82;;;3.92;;
80293;SDS011;69594;43.516;1.498;2023-07-08T04:21:52;9.88;;;4.07;;
80293;SDS011;69594;43.516;1.498;2023-07-08T04:24:17;8.73;;;3.90;;
80293;SDS011;69594;43.516;1.498;2023-07-08T04:26:43;11.65;;;3.90;;
80293;SDS011;69594;43.516;1.498;2023-07-08T04:29:15;8.27;;;3.60;;
80293;SDS011;69594;43.516;1.498;2023-07-08T04:31:43;12.52;;;4.43;;
80293;SDS011;69594;43.516;1.498;2023-07-08T04:34:09;7.82;;;4.03;;
80293;SDS011;69594;43.516;1.498;2023-07-08T04:36:36;8.68;;;3.55;;
80293;SDS011;69594;43.516;1.498;2023-07-08T04:39:03;7.68;;;4.10;;
80293;SDS011;69594;43.516;1.498;2023-07-08T04:41:36;11.97;;;4.20;;
80293;SDS011;69594;43.516;1.498;2023-07-08T04:44:09;10.13;;;3.92;;
80293;SDS011;69594;43.516;1.498;2023-07-08T04:46:40;9.00;;;4.25;;
80293;SDS011;69594;43.516;1.498;2023-07-08T04:49:10;9.57;;;4.25;;
80293;SDS011;69594;43.516;1.498;2023-07-08T04:51:36;11.17;;;4.23;;
80293;SDS011;69594;43.516;1.498;2023-07-08T04:54:02;7.28;;;4.00;;
80293;SDS011;69594;43.516;1.498;2023-07-08T04:56:39;9.60;;;4.90;;
80293;SDS011;69594;43.516;1.498;2023-07-08T04:59:13;8.80;;;3.97;;
80293;SDS011;69594;43.516;1.498;2023-07-08T05:01:39;6.68;;;3.90;;
80293;SDS011;69594;43.516;1.498;2023-07-08T05:04:06;11.07;;;4.83;;
80293;SDS011;69594;43.516;1.498;2023-07-08T05:06:32;8.98;;;4.22;;
80293;SDS011;69594;43.516;1.498;2023-07-08T05:08:59;8.48;;;4.20;;
80293;SDS011;69594;43.516;1.498;2023-07-08T05:11:25;11.50;;;5.25;;
80293;SDS011;69594;43.516;1.498;2023-07-08T05:13:51;8.33;;;4.70;;
80293;SDS011;69594;43.516;1.498;2023-07-08T05:16:16;11.27;;;4.47;;
80293;SDS011;69594;43.516;1.498;2023-07-08T05:18:42;10.77;;;4.87;;
80293;SDS011;69594;43.516;1.498;2023-07-08T05:21:09;9.05;;;4.30;;
80293;SDS011;69594;43.516;1.498;2023-07-08T05:23:35;9.50;;;5.10;;
80293;SDS011;69594;43.516;1.498;2023-07-08T05:26:02;11.07;;;4.60;;
80293;SDS011;69594;43.516;1.498;2023-07-08T05:28:29;10.63;;;4.57;;
80293;SDS011;69594;43.516;1.498;2023-07-08T05:30:55;12.23;;;5.32;;
80293;SDS011;69594;43.516;1.498;2023-07-08T05:33:22;7.88;;;4.43;;
80293;SDS011;69594;43.516;1.498;2023-07-08T05:35:53;10.80;;;5.32;;
80293;SDS011;69594;43.516;1.498;2023-07-08T05:38:19;12.07;;;5.07;;
80293;SDS011;69594;43.516;1.498;2023-07-08T05:40:49;9.73;;;4.70;;
80293;SDS011;69594;43.516;1.498;2023-07-08T05:43:16;11.93;;;4.72;;
80293;SDS011;69594;43.516;1.498;2023-07-08T05:45:42;8.73;;;4.57;;
80293;SDS011;69594;43.516;1.498;2023-07-08T05:48:08;10.80;;;5.15;;
80293;SDS011;69594;43.516;1.498;2023-07-08T05:50:34;9.40;;;5.10;;
80293;SDS011;69594;43.516;1.498;2023-07-08T05:52:59;13.43;;;5.00;;
80293;SDS011;69594;43.516;1.498;2023-07-08T05:55:25;8.23;;;4.47;;
80293;SDS011;69594;43.516;1.498;2023-07-08T05:57:50;9.60;;;4.47;;
80293;SDS011;69594;43.516;1.498;2023-07-08T06:00:16;9.45;;;4.10;;
80293;SDS011;69594;43.516;1.498;2023-07-08T06:02:42;7.93;;;4.13;;
80293;SDS011;69594;43.516;1.498;2023-07-08T06:05:07;9.73;;;4.30;;
80293;SDS011;69594;43.516;1.498;2023-07-08T06:07:36;7.90;;;4.60;;
80293;SDS011;69594;43.516;1.498;2023-07-08T06:10:02;8.93;;;4.30;;
80293;SDS011;69594;43.516;1.498;2023-07-08T06:12:29;8.60;;;4.57;;
80293;SDS011;69594;43.516;1.498;2023-07-08T06:14:55;9.25;;;4.63;;
80293;SDS011;69594;43.516;1.498;2023-07-08T06:17:21;8.60;;;4.73;;
80293;SDS011;69594;43.516;1.498;2023-07-08T06:19:47;11.47;;;5.07;;
80293;SDS011;69594;43.516;1.498;2023-07-08T06:22:13;10.98;;;4.40;;
80293;SDS011;69594;43.516;1.498;2023-07-08T06:24:38;9.77;;;4.27;;
80293;SDS011;69594;43.516;1.498;2023-07-08T06:27:04;8.60;;;4.27;;
80293;SDS011;69594;43.516;1.498;2023-07-08T06:29:30;8.55;;;4.53;;
80293;SDS011;69594;43.516;1.498;2023-07-08T06:31:55;9.93;;;4.30;;
80293;SDS011;69594;43.516;1.498;2023-07-08T06:34:21;7.33;;;4.00;;
80293;SDS011;69594;43.516;1.498;2023-07-08T06:36:49;10.38;;;4.57;;
80293;SDS011;69594;43.516;1.498;2023-07-08T06:39:15;8.83;;;4.13;;
80293;SDS011;69594;43.516;1.498;2023-07-08T06:41:41;10.18;;;3.60;;
80293;SDS011;69594;43.516;1.498;2023-07-08T06:44:07;10.02;;;4.00;;
80293;SDS011;69594;43.516;1.498;2023-07-08T06:46:33;9.60;;;4.17;;
80293;SDS011;69594;43.516;1.498;2023-07-08T06:48:59;9.10;;;3.95;;
80293;SDS011;69594;43.516;1.498;2023-07-08T06:51:25;7.55;;;4.28;;
80293;SDS011;69594;43.516;1.498;2023-07-08T06:53:51;11.10;;;4.00;;
80293;SDS011;69594;43.516;1.498;2023-07-08T06:56:17;8.07;;;3.80;;
80293;SDS011;69594;43.516;1.498;2023-07-08T06:58:42;9.77;;;3.13;;
80293;SDS011;69594;43.516;1.498;2023-07-08T07:01:09;9.30;;;3.83;;
80293;SDS011;69594;43.516;1.498;2023-07-08T07:03:35;7.25;;;3.90;;
80293;SDS011;69594;43.516;1.498;2023-07-08T07:06:00;11.77;;;4.40;;
80293;SDS011;69594;43.516;1.498;2023-07-08T07:08:26;8.38;;;3.55;;
80293;SDS011;69594;43.516;1.498;2023-07-08T07:10:52;7.67;;;3.40;;
80293;SDS011;69594;43.516;1.498;2023-07-08T07:13:17;8.33;;;3.77;;
80293;SDS011;69594;43.516;1.498;2023-07-08T07:15:43;6.70;;;3.22;;
80293;SDS011;69594;43.516;1.498;2023-07-08T07:18:09;11.02;;;3.97;;
80293;SDS011;69594;43.516;1.498;2023-07-08T07:20:35;8.20;;;4.17;;
80293;SDS011;69594;43.516;1.498;2023-07-08T07:23:02;9.32;;;3.63;;
80293;SDS011;69594;43.516;1.498;2023-07-08T07:25:27;7.97;;;3.67;;
80293;SDS011;69594;43.516;1.498;2023-07-08T07:27:53;10.65;;;4.35;;
80293;SDS011;69594;43.516;1.498;2023-07-08T07:30:18;10.10;;;3.63;;
80293;SDS011;69594;43.516;1.498;2023-07-08T07:32:44;6.73;;;3.30;;
80293;SDS011;69594;43.516;1.498;2023-07-08T07:35:10;8.30;;;3.67;;
80293;SDS011;69594;43.516;1.498;2023-07-08T07:37:38;7.18;;;3.55;;
80293;SDS011;69594;43.516;1.498;2023-07-08T07:40:06;7.57;;;3.65;;
80293;SDS011;69594;43.516;1.498;2023-07-08T07:42:38;10.37;;;4.03;;
80293;SDS011;69594;43.516;1.498;2023-07-08T07:45:08;7.43;;;3.25;;
80293;SDS011;69594;43.516;1.498;2023-07-08T07:47:34;7.28;;;4.10;;
80293;SDS011;69594;43.516;1.498;2023-07-08T07:50:00;9.18;;;4.25;;
80293;SDS011;69594;43.516;1.498;2023-07-08T07:52:27;8.65;;;3.70;;
80293;SDS011;69594;43.516;1.498;2023-07-08T07:54:52;8.93;;;3.73;;
80293;SDS011;69594;43.516;1.498;2023-07-08T07:57:19;9.13;;;3.72;;
80293;SDS011;69594;43.516;1.498;2023-07-08T07:59:45;8.48;;;3.60;;
80293;SDS011;69594;43.516;1.498;2023-07-08T08:02:11;8.98;;;3.50;;
80293;SDS011;69594;43.516;1.498;2023-07-08T08:04:37;8.67;;;3.70;;
80293;SDS011;69594;43.516;1.498;2023-07-08T08:07:02;8.77;;;3.85;;
80293;SDS011;69594;43.516;1.498;2023-07-08T08:09:29;10.73;;;4.03;;
80293;SDS011;69594;43.516;1.498;2023-07-08T08:11:54;9.20;;;3.60;;
80293;SDS011;69594;43.516;1.498;2023-07-08T08:14:20;8.23;;;3.97;;
80293;SDS011;69594;43.516;1.498;2023-07-08T08:16:46;7.78;;;4.30;;
80293;SDS011;69594;43.516;1.498;2023-07-08T08:19:11;7.87;;;4.20;;
80293;SDS011;69594;43.516;1.498;2023-07-08T08:21:37;10.77;;;4.28;;
80293;SDS011;69594;43.516;1.498;2023-07-08T08:24:02;12.50;;;3.77;;
80293;SDS011;69594;43.516;1.498;2023-07-08T08:26:28;9.00;;;4.30;;
80293;SDS011;69594;43.516;1.498;2023-07-08T08:28:54;8.93;;;3.93;;
80293;SDS011;69594;43.516;1.498;2023-07-08T08:31:20;9.77;;;4.25;;
80293;SDS011;69594;43.516;1.498;2023-07-08T08:33:46;14.37;;;4.00;;
80293;SDS011;69594;43.516;1.498;2023-07-08T08:36:12;8.07;;;3.97;;
80293;SDS011;69594;43.516;1.498;2023-07-08T08:38:37;8.77;;;4.00;;
80293;SDS011;69594;43.516;1.498;2023-07-08T08:41:08;7.80;;;4.10;;
80293;SDS011;69594;43.516;1.498;2023-07-08T08:43:40;10.20;;;4.10;;
80293;SDS011;69594;43.516;1.498;2023-07-08T08:46:12;7.95;;;3.75;;
80293;SDS011;69594;43.516;1.498;2023-07-08T08:48:53;8.25;;;4.35;;
80293;SDS011;69594;43.516;1.498;2023-07-08T08:51:25;9.30;;;3.70;;
80293;SDS011;69594;43.516;1.498;2023-07-08T08:53:54;10.27;;;4.07;;
80293;SDS011;69594;43.516;1.498;2023-07-08T08:56:23;10.40;;;4.17;;
80293;SDS011;69594;43.516;1.498;2023-07-08T08:58:57;7.43;;;3.85;;
80293;SDS011;69594;43.516;1.498;2023-07-08T09:01:30;9.13;;;4.30;;
80293;SDS011;69594;43.516;1.498;2023-07-08T09:03:57;6.82;;;3.88;;
80293;SDS011;69594;43.516;1.498;2023-07-08T09:06:28;9.38;;;4.55;;
80293;SDS011;69594;43.516;1.498;2023-07-08T09:08:57;9.20;;;3.73;;
80293;SDS011;69594;43.516;1.498;2023-07-08T09:14:24;11.40;;;4.60;;
80293;SDS011;69594;43.516;1.498;2023-07-08T09:19:41;10.32;;;3.88;;
80293;SDS011;69594;43.516;1.498;2023-07-08T09:27:59;11.50;;;4.47;;
80293;SDS011;69594;43.516;1.498;2023-07-08T09:30:24;9.07;;;4.53;;
80293;SDS011;69594;43.516;1.498;2023-07-08T09:32:51;9.40;;;3.97;;
80293;SDS011;69594;43.516;1.498;2023-07-08T09:35:27;7.95;;;4.25;;
80293;SDS011;69594;43.516;1.498;2023-07-08T09:38:06;8.65;;;4.40;;
80293;SDS011;69594;43.516;1.498;2023-07-08T09:40:35;7.27;;;3.70;;
80293;SDS011;69594;43.516;1.498;2023-07-08T09:43:02;7.35;;;3.75;;
80293;SDS011;69594;43.516;1.498;2023-07-08T09:45:42;9.75;;;4.47;;
80293;SDS011;69594;43.516;1.498;2023-07-08T09:50:53;8.48;;;3.97;;
80293;SDS011;69594;43.516;1.498;2023-07-08T09:53:21;6.40;;;3.83;;
80293;SDS011;69594;43.516;1.498;2023-07-08T09:58:44;9.38;;;4.30;;
80293;SDS011;69594;43.516;1.498;2023-07-08T10:01:13;9.27;;;4.25;;
80293;SDS011;69594;43.516;1.498;2023-07-08T10:03:43;7.45;;;3.70;;
80293;SDS011;69594;43.516;1.498;2023-07-08T10:06:22;9.47;;;4.30;;
80293;SDS011;69594;43.516;1.498;2023-07-08T10:08:51;7.50;;;3.65;;
80293;SDS011;69594;43.516;1.498;2023-07-08T10:11:27;8.68;;;4.32;;
80293;SDS011;69594;43.516;1.498;2023-07-08T10:14:05;9.80;;;4.03;;
80293;SDS011;69594;43.516;1.498;2023-07-08T10:16:36;6.88;;;3.83;;
80293;SDS011;69594;43.516;1.498;2023-07-08T10:19:09;10.45;;;4.35;;
80293;SDS011;69594;43.516;1.498;2023-07-08T10:27:10;10.32;;;4.00;;
80293;SDS011;69594;43.516;1.498;2023-07-08T10:29:45;7.78;;;3.63;;
80293;SDS011;69594;43.516;1.498;2023-07-08T10:40:47;8.15;;;4.22;;
80293;SDS011;69594;43.516;1.498;2023-07-08T10:51:48;10.83;;;4.03;;
80293;SDS011;69594;43.516;1.498;2023-07-08T10:54:24;9.00;;;3.95;;
80293;SDS011;69594;43.516;1.498;2023-07-08T11:03:11;7.82;;;4.05;;
80293;SDS011;69594;43.516;1.498;2023-07-08T11:06:10;8.10;;;3.83;;
80293;SDS011;69594;43.516;1.498;2023-07-08T11:08:56;7.60;;;3.78;;
80293;SDS011;69594;43.516;1.498;2023-07-08T11:11:42;8.27;;;4.03;;
80293;SDS011;69594;43.516;1.498;2023-07-08T11:14:12;7.35;;;3.50;;
80293;SDS011;69594;43.516;1.498;2023-07-08T11:16:46;8.05;;;4.07;;
80293;SDS011;69594;43.516;1.498;2023-07-08T11:19:57;6.93;;;3.67;;
80293;SDS011;69594;43.516;1.498;2023-07-08T11:22:18;7.68;;;3.63;;
80293;SDS011;69594;43.516;1.498;2023-07-08T11:24:47;10.52;;;4.40;;
80293;SDS011;69594;43.516;1.498;2023-07-08T11:32:28;8.00;;;3.73;;
80293;SDS011;69594;43.516;1.498;2023-07-08T11:34:56;10.82;;;4.38;;
80293;SDS011;69594;43.516;1.498;2023-07-08T11:37:24;6.22;;;3.40;;
80293;SDS011;69594;43.516;1.498;2023-07-08T11:39:54;10.90;;;4.43;;
80293;SDS011;69594;43.516;1.498;2023-07-08T11:45:02;10.17;;;3.90;;
80293;SDS011;69594;43.516;1.498;2023-07-08T11:47:39;8.38;;;4.18;;
80293;SDS011;69594;43.516;1.498;2023-07-08T11:53:00;9.00;;;3.15;;
80293;SDS011;69594;43.516;1.498;2023-07-08T11:55:42;8.48;;;4.05;;
80293;SDS011;69594;43.516;1.498;2023-07-08T11:58:26;8.90;;;3.87;;
80293;SDS011;69594;43.516;1.498;2023-07-08T12:00:58;8.13;;;3.47;;
80293;SDS011;69594;43.516;1.498;2023-07-08T12:03:38;9.50;;;3.80;;
80293;SDS011;69594;43.516;1.498;2023-07-08T12:08:56;11.38;;;4.00;;
80293;SDS011;69594;43.516;1.498;2023-07-08T12:11:32;8.77;;;3.70;;
80293;SDS011;69594;43.516;1.498;2023-07-08T12:14:01;10.18;;;4.03;;
80293;SDS011;69594;43.516;1.498;2023-07-08T12:16:34;8.80;;;4.00;;
80293;SDS011;69594;43.516;1.498;2023-07-08T12:18:59;8.43;;;3.40;;
80293;SDS011;69594;43.516;1.498;2023-07-08T12:21:29;8.03;;;3.80;;
80293;SDS011;69594;43.516;1.498;2023-07-08T12:24:02;8.20;;;3.55;;
80293;SDS011;69594;43.516;1.498;2023-07-08T12:26:35;7.85;;;3.92;;
80293;SDS011;69594;43.516;1.498;2023-07-08T12:29:01;9.18;;;3.92;;
80293;SDS011;69594;43.516;1.498;2023-07-08T12:31:27;10.57;;;4.50;;
80293;SDS011;69594;43.516;1.498;2023-07-08T12:33:53;8.43;;;3.47;;
80293;SDS011;69594;43.516;1.498;2023-07-08T12:36:21;8.27;;;3.47;;
80293;SDS011;69594;43.516;1.498;2023-07-08T12:38:52;5.97;;;3.30;;
80293;SDS011;69594;43.516;1.498;2023-07-08T12:41:21;6.70;;;3.20;;
80293;SDS011;69594;43.516;1.498;2023-07-08T12:43:49;9.10;;;3.63;;
80293;SDS011;69594;43.516;1.498;2023-07-08T12:46:16;12.73;;;4.18;;
80293;SDS011;69594;43.516;1.498;2023-07-08T12:48:43;8.48;;;3.72;;
80293;SDS011;69594;43.516;1.498;2023-07-08T12:51:10;6.73;;;3.40;;
80293;SDS011;69594;43.516;1.498;2023-07-08T12:53:40;7.97;;;3.53;;
80293;SDS011;69594;43.516;1.498;2023-07-08T12:56:07;6.93;;;3.22;;
80293;SDS011;69594;43.516;1.498;2023-07-08T12:58:42;9.57;;;3.67;;
80293;SDS011;69594;43.516;1.498;2023-07-08T13:01:16;10.00;;;3.97;;
80293;SDS011;69594;43.516;1.498;2023-07-08T13:03:48;7.22;;;3.75;;
80293;SDS011;69594;43.516;1.498;2023-07-08T13:06:17;9.00;;;3.20;;
80293;SDS011;69594;43.516;1.498;2023-07-08T13:08:45;7.07;;;3.38;;
80293;SDS011;69594;43.516;1.498;2023-07-08T13:11:13;7.97;;;3.67;;
80293;SDS011;69594;43.516;1.498;2023-07-08T13:13:45;6.05;;;3.40;;
80293;SDS011;69594;43.516;1.498;2023-07-08T13:16:13;9.63;;;3.55;;
80293;SDS011;69594;43.516;1.498;2023-07-08T13:18:40;6.70;;;3.40;;
80293;SDS011;69594;43.516;1.498;2023-07-08T13:21:08;9.13;;;3.47;;
80293;SDS011;69594;43.516;1.498;2023-07-08T13:23:37;7.90;;;3.53;;
80293;SDS011;69594;43.516;1.498;2023-07-08T13:28:45;6.13;;;3.20;;
80293;SDS011;69594;43.516;1.498;2023-07-08T13:31:16;11.20;;;3.97;;
80293;SDS011;69594;43.516;1.498;2023-07-08T13:33:45;13.13;;;3.92;;
80293;SDS011;69594;43.516;1.498;2023-07-08T13:36:13;9.27;;;3.60;;
80293;SDS011;69594;43.516;1.498;2023-07-08T13:38:41;7.35;;;3.25;;
80293;SDS011;69594;43.516;1.498;2023-07-08T13:41:07;8.35;;;3.65;;
80293;SDS011;69594;43.516;1.498;2023-07-08T13:43:35;7.95;;;3.55;;
80293;SDS011;69594;43.516;1.498;2023-07-08T13:46:03;9.50;;;3.55;;
80293;SDS011;69594;43.516;1.498;2023-07-08T13:48:37;8.87;;;3.87;;
80293;SDS011;69594;43.516;1.498;2023-07-08T13:51:16;11.82;;;3.42;;
80293;SDS011;69594;43.516;1.498;2023-07-08T13:53:48;11.30;;;3.70;;
80293;SDS011;69594;43.516;1.498;2023-07-08T13:56:20;8.43;;;3.55;;
80293;SDS011;69594;43.516;1.498;2023-07-08T13:58:51;7.07;;;3.72;;
80293;SDS011;69594;43.516;1.498;2023-07-08T14:01:26;6.80;;;3.50;;
80293;SDS011;69594;43.516;1.498;2023-07-08T14:03:53;6.97;;;3.47;;
80293;SDS011;69594;43.516;1.498;2023-07-08T14:06:21;11.70;;;3.35;;
80293;SDS011;69594;43.516;1.498;2023-07-08T14:08:49;7.07;;;3.30;;
80293;SDS011;69594;43.516;1.498;2023-07-08T14:11:21;7.10;;;3.83;;
80293;SDS011;69594;43.516;1.498;2023-07-08T14:13:47;7.67;;;3.67;;
80293;SDS011;69594;43.516;1.498;2023-07-08T14:16:22;6.05;;;3.45;;
80293;SDS011;69594;43.516;1.498;2023-07-08T14:18:50;7.57;;;3.33;;
80293;SDS011;69594;43.516;1.498;2023-07-08T14:21:17;6.15;;;3.10;;
80293;SDS011;69594;43.516;1.498;2023-07-08T14:23:43;5.88;;;3.47;;
80293;SDS011;69594;43.516;1.498;2023-07-08T14:26:09;7.35;;;3.10;;
80293;SDS011;69594;43.516;1.498;2023-07-08T14:28:35;6.07;;;3.53;;
80293;SDS011;69594;43.516;1.498;2023-07-08T14:31:01;9.97;;;3.30;;
80293;SDS011;69594;43.516;1.498;2023-07-08T14:33:27;5.60;;;3.20;;
80293;SDS011;69594;43.516;1.498;2023-07-08T14:35:53;8.23;;;3.57;;
80293;SDS011;69594;43.516;1.498;2023-07-08T14:38:21;7.57;;;3.55;;
80293;SDS011;69594;43.516;1.498;2023-07-08T14:40:49;7.28;;;3.88;;
80293;SDS011;69594;43.516;1.498;2023-07-08T14:43:17;6.38;;;3.40;;
80293;SDS011;69594;43.516;1.498;2023-07-08T14:45:48;8.00;;;3.50;;
80293;SDS011;69594;43.516;1.498;2023-07-08T14:48:16;7.30;;;3.22;;
80293;SDS011;69594;43.516;1.498;2023-07-08T14:50:43;6.40;;;3.33;;
80293;SDS011;69594;43.516;1.498;2023-07-08T14:53:09;7.97;;;3.67;;
80293;SDS011;69594;43.516;1.498;2023-07-08T14:55:35;5.73;;;3.20;;
80293;SDS011;69594;43.516;1.498;2023-07-08T14:58:02;5.93;;;3.00;;
80293;SDS011;69594;43.516;1.498;2023-07-08T15:00:28;6.30;;;3.40;;
80293;SDS011;69594;43.516;1.498;2023-07-08T15:02:54;5.63;;;3.20;;
80293;SDS011;69594;43.516;1.498;2023-07-08T15:05:21;8.00;;;3.38;;
80293;SDS011;69594;43.516;1.498;2023-07-08T15:07:52;6.95;;;3.40;;
80293;SDS011;69594;43.516;1.498;2023-07-08T15:10:20;10.02;;;3.35;;
80293;SDS011;69594;43.516;1.498;2023-07-08T15:12:48;7.70;;;3.88;;
80293;SDS011;69594;43.516;1.498;2023-07-08T15:15:26;6.67;;;3.27;;
80293;SDS011;69594;43.516;1.498;2023-07-08T15:17:56;5.43;;;3.17;;
80293;SDS011;69594;43.516;1.498;2023-07-08T15:20:22;8.18;;;3.70;;
80293;SDS011;69594;43.516;1.498;2023-07-08T15:22:50;6.47;;;3.38;;
80293;SDS011;69594;43.516;1.498;2023-07-08T15:25:16;6.23;;;3.40;;
80293;SDS011;69594;43.516;1.498;2023-07-08T15:27:46;7.47;;;3.67;;
80293;SDS011;69594;43.516;1.498;2023-07-08T15:30:17;6.53;;;3.28;;
80293;SDS011;69594;43.516;1.498;2023-07-08T15:32:56;7.05;;;3.65;;
80293;SDS011;69594;43.516;1.498;2023-07-08T15:35:26;7.30;;;3.60;;
80293;SDS011;69594;43.516;1.498;2023-07-08T15:37:57;6.60;;;3.58;;
80293;SDS011;69594;43.516;1.498;2023-07-08T15:40:30;8.57;;;3.50;;
80293;SDS011;69594;43.516;1.498;2023-07-08T15:42:58;8.27;;;3.50;;
80293;SDS011;69594;43.516;1.498;2023-07-08T15:45:35;5.88;;;2.92;;
80293;SDS011;69594;43.516;1.498;2023-07-08T15:48:02;5.43;;;2.83;;
80293;SDS011;69594;43.516;1.498;2023-07-08T15:50:29;6.32;;;3.33;;
80293;SDS011;69594;43.516;1.498;2023-07-08T15:52:55;4.35;;;2.88;;
80293;SDS011;69594;43.516;1.498;2023-07-08T15:55:28;7.55;;;3.63;;
80293;SDS011;69594;43.516;1.498;2023-07-08T15:58:00;6.35;;;3.45;;
80293;SDS011;69594;43.516;1.498;2023-07-08T16:00:46;9.60;;;3.67;;